Service Notice

This observation station is currently unavailable due to a loss of power in the area.

Work to restore the service will be undertaken as soon as it is safe to do so.

The Bureau's national resources allow our meteorologists to produce accurate and timely forecasts and warnings in areas without observations, including for the locations around this station site. Search for forcast by town, city, post code or lat/lon here or find the location on the MetEye map.

Latest Weather Observations for Cabramurra

IDN60801

Issued at 2:22 pm EST Thursday 28 May 2020 (issued every 10 minutes, with the page automatically refreshed every 10 minutes)

About weather observations | Map of weather stations | Latest weather observations for NSW | Other Formats
Station Details ID: 072161 Name: CABRAMURRA SMHEA AWS Lat: -35.94 Lon: 148.38 Height: 1482.4 m
Data from the previous 72 hours. | See also: Recent months at Cabramurra
Date/Time
EST
Temp
°C
App
Temp
°C
Dew
Point
°C
Rel
Hum
%
Delta-T
°C
Wind Press
QNH
hPa
Press
MSL
hPa
Rain since
9am
mm
Dir  Spd
km/h
Gust
km/h
Spd
kts
Gust
kts
28/02:00pm 7.4 3.0 2.5 71 2.2 W 15 22 8 12 - - 0.0
28/01:30pm 6.1 1.5 1.6 73 2.0 WNW 15 20 8 11 - - 0.0
28/01:00pm 5.9 2.6 4.5 91 0.7 W 11 15 6 8 - - 0.0
28/12:30pm 6.0 2.2 3.7 85 1.1 W 13 19 7 10 - - 0.0
28/12:00pm 5.9 1.8 4.2 89 0.8 WNW 15 20 8 11 - - 0.0
28/11:30am 6.4 2.7 4.6 88 0.9 WNW 13 17 7 9 - - 0.0
28/11:00am 5.5 2.1 4.2 91 0.6 WNW 11 13 6 7 - - 0.0
28/10:30am 5.0 1.7 4.4 96 0.3 W 11 15 6 8 - - 0.0
28/10:00am 5.2 2.4 5.1 99 0.0 W 9 11 5 6 - - 0.0
28/09:30am 4.7 1.4 4.6 99 0.0 W 11 13 6 7 - - 0.0
28/09:00am 4.6 0.9 4.5 99 0.0 W 13 19 7 10 - - 0.0
28/08:30am 4.2 0.8 4.1 99 0.0 W 11 15 6 8 - - 0.0
28/08:00am 3.9 0.5 3.8 99 0.0 W 11 15 6 8 - - 0.0
28/07:30am 3.9 0.5 3.8 99 0.0 W 11 15 6 8 - - 0.0
28/07:00am 4.0 0.6 4.0 100 0.0 SW 11 15 6 8 - - 0.0
28/06:30am 4.0 1.4 4.0 100 0.0 SW 7 9 4 5 - - 0.0
28/06:00am 3.9 0.9 3.9 100 0.0 SW 9 13 5 7 - - 0.0
28/05:30am 4.3 0.6 4.3 100 0.0 W 13 20 7 11 - - 0.0
28/05:00am 4.3 0.2 4.3 100 0.0 WNW 15 20 8 11 - - 0.0
28/04:30am 4.4 0.3 4.4 100 0.0 W 15 22 8 12 - - 0.0
28/04:00am 4.6 0.5 4.5 99 0.0 W 15 19 8 10 - - 0.0
28/03:30am 4.6 0.9 4.5 99 0.0 WNW 13 20 7 11 - - 0.0
28/03:00am 4.8 1.1 4.7 99 0.0 WNW 13 20 7 11 - - 0.0
28/02:30am 4.9 1.3 4.8 99 0.0 WNW 13 17 7 9 - - 0.0
28/02:00am 5.0 1.4 4.9 99 0.0 WNW 13 17 7 9 - - 0.0
28/01:30am 5.1 1.9 5.0 99 0.0 WNW 11 15 6 8 - - 0.0
28/01:00am 5.1 1.9 5.0 99 0.0 WNW 11 15 6 8 - - 0.0
28/12:30am 5.1 1.5 5.0 99 0.0 WNW 13 17 7 9 - - 0.0
28/12:00am 5.0 2.1 4.9 99 0.0 WNW 9 9 5 5 - - 0.0
 
Date/Time
EST
Temp
°C
App
Temp
°C
Dew
Point
°C
Rel
Hum
%
Delta-T
°C
Wind Press
QNH
hPa
Press
MSL
hPa
Rain since
9am
mm
Dir  Spd
km/h
Gust
km/h
Spd
kts
Gust
kts
27/11:30pm 4.9 2.4 4.8 99 0.0 WSW 7 11 4 6 - - 0.0
27/11:00pm 4.8 2.5 4.7 99 0.0 SW 6 7 3 4 - - 0.0
27/10:30pm 4.6 2.2 4.2 97 0.2 SW 6 11 3 6 - - 0.0
27/10:00pm 4.5 3.3 4.4 99 0.0 CALM 0 0 0 0 - - 0.0
27/09:30pm 4.6 3.3 4.2 97 0.2 CALM 0 0 0 0 - - 0.0
27/09:00pm 4.4 3.1 4.0 97 0.2 CALM 0 0 0 0 - - 0.0
27/08:30pm 4.5 2.3 3.6 94 0.4 NNW 4 7 2 4 - - 0.0
27/08:00pm 4.9 2.4 3.6 91 0.6 NNW 6 9 3 5 - - 0.0
27/07:30pm 4.7 3.4 4.3 97 0.2 CALM 0 0 0 0 - - 0.0
27/07:00pm 4.2 2.5 3.8 97 0.2 NE 2 6 1 3 - - 0.0
27/06:30pm 4.6 2.1 3.7 94 0.4 NW 6 7 3 4 - - 0.0
27/06:00pm 5.3 2.1 3.2 86 1.0 SSE 9 11 5 6 - - 0.0
27/05:30pm 5.5 2.8 3.5 87 0.9 SSE 7 11 4 6 - - 0.0
27/05:00pm 5.3 2.1 3.3 87 0.9 SE 9 11 5 6 - - 0.0
27/04:30pm 5.3 3.1 3.6 89 0.8 SSW 4 7 2 4 - - 0.0
27/04:00pm 5.5 3.7 3.7 88 0.8 W 2 7 1 4 - - 0.0
27/03:30pm 5.5 2.8 3.7 88 0.8 WSW 7 11 4 6 - - 0.0
27/03:00pm 5.8 3.1 3.5 85 1.1 W 7 11 4 6 - - 0.0
27/02:30pm 5.8 1.9 3.3 84 1.1 WSW 13 17 7 9 - - 0.0
27/02:00pm 5.8 1.8 3.0 82 1.3 W 13 20 7 11 - - 0.0
27/01:30pm 6.2 1.8 2.5 77 1.7 W 15 20 8 11 - - 0.0
27/01:00pm 6.8 3.0 3.8 81 1.4 W 13 19 7 10 - - 0.0
27/12:30pm 6.4 1.7 3.0 79 1.6 WNW 17 22 9 12 - - 0.0
27/12:00pm 7.2 3.5 4.3 82 1.4 W 13 17 7 9 - - 0.0
27/11:30am 6.3 2.6 2.6 77 1.7 WNW 11 15 6 8 - - 0.0
27/11:00am 6.3 3.1 3.1 80 1.5 NW 9 11 5 6 - - 0.0
27/10:30am 5.8 1.7 2.4 79 1.5 NW 13 17 7 9 - - 0.0
27/10:00am 6.3 2.6 2.6 77 1.7 NNW 11 15 6 8 - - 0.0
27/09:30am 6.3 3.5 1.8 73 2.0 NNW 6 9 3 5 - - 0.0
27/09:00am 5.4 2.3 1.3 75 1.8 N 7 9 4 5 - - 0.0
27/08:30am 5.2 2.2 1.0 74 1.8 NE 6 7 3 4 - - 0.0
27/08:00am 4.1 1.1 1.1 81 1.3 N 6 9 3 5 - - 0.0
27/07:30am 3.8 0.7 1.4 84 1.0 N 7 9 4 5 - - 0.0
27/07:00am 3.0 -0.6 0.9 86 0.9 NE 9 11 5 6 - - 0.0
27/06:30am 3.1 -0.5 0.8 85 1.0 NNE 9 13 5 7 - - 0.0
27/06:00am 2.8 -0.8 0.9 87 0.8 NE 9 11 5 6 - - 0.0
27/05:30am 2.7 -0.5 0.9 88 0.8 NE 7 9 4 5 - - 0.0
27/05:00am 3.0 0.1 1.2 88 0.8 NNW 6 11 3 6 - - 0.0
27/04:30am 2.5 -0.5 1.0 90 0.6 ENE 6 11 3 6 - - 0.0
27/04:00am 3.0 1.2 1.5 90 0.6 CALM 0 0 0 0 - - 0.0
27/03:30am 2.8 -0.1 1.2 89 0.7 E 6 9 3 5 - - 0.0
27/03:00am 3.1 0.0 1.3 88 0.8 ESE 7 11 4 6 - - 0.0
27/02:30am 2.3 -0.9 0.7 89 0.7 NE 7 11 4 6 - - 0.0
27/02:00am 2.5 -1.4 0.9 89 0.7 E 11 15 6 8 - - 0.0
27/01:30am 2.4 -1.9 0.8 89 0.7 E 13 20 7 11 - - 0.0
27/01:00am 3.0 -0.6 0.9 86 0.9 E 9 15 5 8 - - 0.0
27/12:30am 2.8 -0.7 1.0 88 0.8 E 9 15 5 8 - - 0.0
27/12:00am 3.0 -2.0 1.1 87 0.8 E 17 26 9 14 - - 0.0
 
Date/Time
EST
Temp
°C
App
Temp
°C
Dew
Point
°C
Rel
Hum
%
Delta-T
°C
Wind Press
QNH
hPa
Press
MSL
hPa
Rain since
9am
mm
Dir  Spd
km/h
Gust
km/h
Spd
kts
Gust
kts
26/11:30pm 3.0 -2.6 1.2 88 0.8 E 20 26 11 14 - - 0.0
26/11:00pm 3.4 -2.6 1.3 86 0.9 E 22 28 12 15 - - 0.0
26/10:30pm 3.6 -2.3 1.5 86 0.9 E 22 32 12 17 - - 0.0
26/10:00pm 3.7 -2.6 1.4 85 1.0 E 24 30 13 16 - - 0.0
26/09:30pm 3.7 -2.2 1.7 87 0.9 E 22 28 12 15 - - 0.0
26/09:00pm 3.6 -3.1 1.6 87 0.9 E 26 32 14 17 - - 0.0
26/08:30pm 3.8 -3.2 1.7 86 0.9 E 28 35 15 19 - - 0.0
26/08:00pm 3.8 -3.5 2.2 89 0.7 E 30 37 16 20 - - 0.0
26/07:30pm 4.1 -3.2 2.6 90 0.7 E 30 37 16 20 - - 0.0
26/07:00pm 4.2 -1.9 2.9 91 0.6 E 24 33 13 18 - - 0.0
26/06:30pm 4.4 -2.4 2.9 90 0.7 E 28 39 15 21 - - 0.0
26/06:00pm 4.7 -2.9 2.9 88 0.8 E 32 43 17 23 - - 0.0
26/05:30pm 5.1 -2.5 2.6 84 1.1 ESE 32 44 17 24 - - 0.0
26/05:11pm 5.1 -0.3 2.5 83 1.2 ESE 20 37 11 20 - - 0.0
26/05:00pm 5.2 1.5 2.4 82 1.3 S 11 26 6 14 - - 0.0
26/04:30pm 5.7 1.7 3.0 83 1.2 SE 13 30 7 16 - - 0.0
26/04:00pm 5.7 1.9 3.9 88 0.8 SE 13 26 7 14 - - 0.0
26/03:30pm 6.3 2.2 4.6 89 0.8 SE 15 30 8 16 - - 0.0
26/03:00pm 6.5 1.6 5.1 91 0.7 ESE 20 32 11 17 - - 0.0
26/02:30pm 6.8 3.2 5.0 88 0.9 ESE 13 24 7 13 - - 0.0
26/02:00pm 7.0 3.8 5.2 88 0.9 SE 11 19 6 10 - - 0.0
26/01:30pm 7.2 2.5 5.0 86 1.1 ESE 19 35 10 19 - - 0.0
26/01:12pm 7.6 1.2 5.4 86 1.1 ESE 28 46 15 25 - - 0.0
26/01:00pm 7.4 0.3 5.4 87 1.0 ESE 32 44 17 24 - - 0.0
26/12:30pm 7.3 0.1 5.0 85 1.1 E 32 43 17 23 - - 0.0
26/12:02pm 7.8 0.4 4.9 82 1.4 ESE 33 52 18 28 - - 0.0
26/12:00pm 7.8 0.0 4.9 82 1.4 ESE 35 52 19 28 - - 0.0
26/11:58am 8.0 0.6 5.1 82 1.4 ESE 33 52 18 28 - - 0.0
26/11:30am 7.6 0.0 5.6 87 1.0 ESE 35 48 19 26 - - 0.0
26/11:00am 7.4 1.1 5.7 89 0.8 ESE 28 39 15 21 - - 0.0
26/10:30am 6.8 -0.5 5.6 92 0.6 ESE 33 46 18 25 - - 0.0
26/10:00am 6.2 -2.7 5.3 94 0.4 ESE 41 56 22 30 - - 0.0
26/09:32am 6.2 -3.0 5.5 95 0.3 ESE 43 61 23 33 - - 0.0
26/09:30am 6.0 -3.5 5.1 94 0.4 ESE 44 61 24 33 - - 0.0
26/09:00am 5.2 -4.6 5.1 99 0.0 ESE 46 61 25 33 - - 0.0
26/08:30am 4.4 -6.4 4.3 99 0.0 ESE 50 59 27 32 - - 0.0
26/08:00am 4.1 -7.5 4.0 99 0.0 ESE 54 69 29 37 - - 0.0
26/07:30am 3.7 -7.6 3.6 99 0.0 ESE 52 65 28 35 - - 0.0
26/07:00am 3.5 -8.2 3.4 99 0.0 ESE 54 67 29 36 - - 0.0
26/06:30am 3.2 -8.5 3.1 99 0.0 ESE 54 65 29 35 - - 0.0
26/06:00am 3.3 -6.9 3.2 99 0.0 ESE 46 59 25 32 - - 0.0
26/05:30am 3.7 -6.8 3.6 99 0.0 ESE 48 61 26 33 - - 0.0
26/05:00am 3.2 -7.8 3.1 99 0.0 ESE 50 61 27 33 - - 0.0
26/04:30am 3.6 -7.7 3.5 99 0.0 ESE 52 63 28 34 - - 0.0
26/04:00am 2.6 -9.2 2.5 99 0.0 ESE 54 65 29 35 - - 0.0
26/03:30am 2.6 -8.9 2.5 99 0.0 ESE 52 61 28 33 - - 0.0
26/03:00am 2.0 -9.6 1.9 99 0.0 ESE 52 61 28 33 - - 0.0
26/02:30am 1.8 -9.4 1.7 99 0.0 ESE 50 65 27 35 - - 0.0
26/02:21am 1.9 -9.3 1.8 99 0.0 ESE 50 69 27 37 - - 0.0
26/02:00am 2.1 -9.9 1.7 97 0.2 ESE 54 69 29 37 - - 0.0
26/01:30am 2.2 -9.4 1.6 96 0.3 ESE 52 63 28 34 - - 0.0
26/01:00am 1.9 -9.3 1.8 99 0.0 ESE 50 65 27 35 - - 0.0
26/12:30am 1.8 -7.3 1.7 99 0.0 ESE 39 54 21 29 - - 0.0
26/12:00am 1.9 -7.6 1.8 99 0.0 ESE 41 65 22 35 - - 0.0
 
Date/Time
EST
Temp
°C
App
Temp
°C
Dew
Point
°C
Rel
Hum
%
Delta-T
°C
Wind Press
QNH
hPa
Press
MSL
hPa
Rain since
9am
mm
Dir  Spd
km/h
Gust
km/h
Spd
kts
Gust
kts
25/11:39pm 1.9 -8.0 1.8 99 0.0 ESE 43 61 23 33 - - 0.0
25/11:30pm 2.0 -8.4 1.9 99 0.0 ESE 46 59 25 32 - - 0.0
25/11:02pm 1.8 -8.7 1.7 99 0.0 ESE 46 65 25 35 - - 0.0
25/11:00pm 1.8 -9.0 1.7 99 0.0 ESE 48 65 26 35 - - 0.0
25/10:30pm 1.7 -9.9 1.6 99 0.0 ESE 52 70 28 38 - - 0.0
25/10:00pm 1.6 -9.7 1.3 98 0.1 ESE 50 70 27 38 - - 0.0
25/09:52pm 1.7 -9.2 1.1 96 0.3 ESE 48 67 26 36 - - 0.0
25/09:47pm 1.7 -8.5 1.0 95 0.3 SE 44 67 24 36 - - 0.0
25/09:30pm 1.7 -5.9 0.8 94 0.4 SE 30 48 16 26 - - 0.0
25/09:00pm 2.0 -7.6 1.1 94 0.4 SE 41 61 22 33 - - 0.0
25/08:34pm 2.4 -4.9 2.3 99 0.0 SE 30 48 16 26 - - 0.0
25/08:30pm 2.5 -5.2 2.4 99 0.0 SE 32 48 17 26 - - 0.0
25/08:00pm 2.8 -4.5 2.2 96 0.3 SE 30 54 16 29 - - 0.0
25/07:59pm 2.8 -4.5 2.2 96 0.3 SE 30 54 16 29 - - 0.0
25/07:30pm 2.7 -5.0 2.1 96 0.3 SE 32 44 17 24 - - 0.0
25/07:13pm 2.8 -4.2 1.9 94 0.4 SE 28 46 15 25 - - 0.0
25/07:00pm 2.9 -5.4 2.2 95 0.3 SE 35 48 19 26 - - 0.0
25/06:30pm 3.1 -3.8 2.5 96 0.3 SE 28 43 15 23 - - 0.0
25/06:00pm 3.3 -4.9 2.7 96 0.3 SE 35 52 19 28 - - 0.0
25/05:35pm 3.3 -4.5 3.0 98 0.1 SE 33 52 18 28 - - 0.0
25/05:30pm 3.3 -4.8 3.0 98 0.1 SE 35 52 19 28 - - 0.0
25/05:00pm 3.5 -4.6 3.2 98 0.1 SE 35 54 19 29 - - 0.0
25/04:30pm 3.8 -5.9 3.1 95 0.3 SE 43 65 23 35 - - 0.0
25/04:00pm 4.4 -3.8 2.9 90 0.7 SE 35 54 19 29 - - 0.0
25/03:30pm 4.8 -3.0 3.0 88 0.8 SE 33 48 18 26 - - 0.0
25/03:00pm 5.0 -0.4 2.5 84 1.1 SE 20 37 11 20 - - 0.0
25/02:30pm 5.6 -1.7 2.6 81 1.4 SE 30 52 16 28 - - 0.0

Other formats

Comma delimited format used in spreadsheet applications
http://www.bom.gov.au/fwo/IDN60801/IDN60801.95916.axf

JavaScript Object Notation format (JSON) in row-major order
http://www.bom.gov.au/fwo/IDN60801/IDN60801.95916.json

Data quality

Most of these data are generated automatically and are frequently updated. Quality checks on data are not normally performed. It is possible for incorrect values to appear. Refer to information at About Latest Weather Observations and please check the disclaimer before using these data.